createdAt,value
2023-02-24T00:00:22.235Z,86.33
2023-02-24T00:01:22.285Z,86.13
2023-02-24T00:02:22.242Z,85.93
2023-02-24T00:03:22.274Z,85.93
2023-02-24T00:04:22.194Z,85.93
2023-02-24T00:05:22.168Z,85.21
2023-02-24T00:06:22.152Z,84.80
2023-02-24T00:07:22.143Z,84.90
2023-02-24T00:08:22.138Z,84.63
2023-02-24T00:09:22.134Z,84.74
2023-02-24T00:10:22.132Z,84.74
2023-02-24T00:11:22.485Z,84.84
2023-02-24T00:12:22.108Z,84.63
2023-02-24T00:13:22.076Z,84.53
2023-02-24T00:14:22.063Z,84.63
2023-02-24T00:15:22.083Z,84.84
2023-02-24T00:16:22.566Z,84.84
2023-02-24T00:17:22.093Z,85.04
2023-02-24T00:18:21.997Z,84.94
2023-02-24T00:19:21.983Z,85.14
2023-02-24T00:20:22.032Z,85.04
2023-02-24T00:21:23.419Z,85.04
2023-02-24T00:22:21.947Z,85.04
2023-02-24T00:23:21.946Z,85.14
2023-02-24T00:24:21.988Z,85.25
2023-02-24T00:25:21.957Z,85.25
2023-02-24T00:26:21.915Z,85.35
2023-02-24T00:27:22.389Z,85.55
2023-02-24T00:28:23.186Z,85.55
2023-02-24T00:29:23.144Z,85.76
2023-02-24T00:30:21.903Z,85.86
2023-02-24T00:31:22.178Z,85.60
2023-02-24T00:32:22.070Z,85.49
2023-02-24T00:33:21.841Z,85.49
2023-02-24T00:34:21.889Z,85.46
2023-02-24T00:35:21.859Z,85.55
2023-02-24T00:36:21.859Z,85.55
2023-02-24T00:37:21.806Z,85.55
2023-02-24T00:38:21.777Z,85.66
2023-02-24T00:39:21.816Z,85.55
2023-02-24T00:40:21.792Z,85.35
2023-02-24T00:41:22.053Z,85.04
2023-02-24T00:42:21.752Z,84.94
2023-02-24T00:43:21.750Z,84.84
2023-02-24T00:44:21.723Z,84.53
2023-02-24T00:45:22.803Z,84.42
2023-02-24T00:46:21.820Z,84.42
2023-02-24T00:47:21.710Z,84.32
2023-02-24T00:48:21.688Z,84.32
2023-02-24T00:49:21.682Z,84.01
2023-02-24T00:50:21.693Z,83.95
2023-02-24T00:51:22.153Z,84.47
2023-02-24T00:52:21.643Z,84.67
2023-02-24T00:53:21.632Z,84.67
2023-02-24T00:54:21.681Z,84.77
2023-02-24T00:55:21.582Z,84.88
2023-02-24T00:56:21.607Z,85.08
2023-02-24T00:57:21.749Z,85.33
2023-02-24T00:58:21.569Z,85.33
2023-02-24T00:59:21.611Z,85.60
2023-02-24T01:00:21.526Z,85.80
2023-02-24T01:01:21.805Z,85.80
2023-02-24T01:02:21.618Z,85.80
2023-02-24T01:03:21.489Z,85.80
2023-02-24T01:04:21.587Z,85.80
2023-02-24T01:05:21.545Z,85.80
2023-02-24T01:06:21.470Z,85.80
2023-02-24T01:07:21.439Z,85.80
2023-02-24T01:08:21.455Z,85.80
2023-02-24T01:09:21.453Z,85.90
2023-02-24T01:10:21.436Z,85.80
2023-02-24T01:11:21.714Z,85.80
2023-02-24T01:12:21.542Z,85.90
2023-02-24T01:13:21.390Z,86.21
2023-02-24T01:14:21.402Z,86.32
2023-02-24T01:15:22.448Z,86.52
2023-02-24T01:16:21.439Z,86.83
2023-02-24T01:17:21.339Z,86.83
2023-02-24T01:18:21.321Z,86.83
2023-02-24T01:19:21.356Z,86.83
2023-02-24T01:20:21.311Z,86.83
2023-02-24T01:21:21.581Z,86.56
2023-02-24T01:22:21.277Z,86.56
2023-02-24T01:23:21.320Z,86.66
2023-02-24T01:24:21.245Z,86.87
2023-02-24T01:25:21.308Z,86.97
2023-02-24T01:26:21.256Z,86.77
2023-02-24T01:27:21.208Z,86.46
2023-02-24T01:28:21.204Z,86.25
2023-02-24T01:29:21.197Z,85.63
2023-02-24T01:30:21.220Z,85.43
2023-02-24T01:31:21.506Z,85.22
2023-02-24T01:32:21.516Z,84.91
2023-02-24T01:33:21.213Z,84.50
2023-02-24T01:34:21.146Z,84.61
2023-02-24T01:35:21.175Z,84.61
2023-02-24T01:36:21.128Z,84.71
2023-02-24T01:37:21.133Z,84.85
2023-02-24T01:38:21.094Z,84.85
2023-02-24T01:39:21.327Z,84.95
2023-02-24T01:40:21.643Z,85.16
2023-02-24T01:41:21.254Z,85.16
2023-02-24T01:42:21.066Z,85.26
2023-02-24T01:43:21.100Z,85.16
2023-02-24T01:44:21.008Z,84.95
2023-02-24T01:45:21.008Z,85.06
2023-02-24T01:46:21.040Z,85.26
2023-02-24T01:47:21.440Z,85.36
2023-02-24T01:48:21.001Z,85.88
2023-02-24T01:49:20.990Z,85.98
2023-02-24T01:50:20.966Z,86.02
2023-02-24T01:51:21.349Z,85.98
2023-02-24T01:52:20.921Z,85.82
2023-02-24T01:53:20.926Z,85.78
2023-02-24T01:54:20.902Z,85.78
2023-02-24T01:55:21.393Z,85.78
2023-02-24T01:56:20.926Z,85.57
2023-02-24T01:57:20.853Z,85.47
2023-02-24T01:58:20.887Z,85.30
2023-02-24T01:59:20.852Z,85.30
2023-02-24T02:00:20.876Z,85.30
2023-02-24T02:01:21.239Z,85.16
2023-02-24T02:02:20.941Z,85.16
2023-02-24T02:03:20.812Z,85.06
2023-02-24T02:04:21.042Z,85.26
2023-02-24T02:05:20.779Z,85.26
2023-02-24T02:06:20.789Z,85.06
2023-02-24T02:07:20.765Z,84.95
2023-02-24T02:08:20.763Z,84.95
2023-02-24T02:09:20.770Z,84.85
2023-02-24T02:10:20.790Z,84.64
2023-02-24T02:11:21.234Z,84.54
2023-02-24T02:12:20.718Z,84.64
2023-02-24T02:13:20.746Z,84.64
2023-02-24T02:14:20.678Z,84.34
2023-02-24T02:15:20.862Z,84.44
2023-02-24T02:16:20.723Z,84.54
2023-02-24T02:17:20.662Z,84.85
2023-02-24T02:18:20.702Z,84.95
2023-02-24T02:19:20.693Z,84.95
2023-02-24T02:20:20.610Z,84.95
2023-02-24T02:21:20.855Z,84.85
2023-02-24T02:22:20.621Z,84.75
2023-02-24T02:23:20.629Z,84.85
2023-02-24T02:24:20.618Z,85.06
2023-02-24T02:25:20.539Z,84.85
2023-02-24T02:26:20.553Z,85.06
2023-02-24T02:27:20.514Z,85.16
2023-02-24T02:28:20.509Z,85.26
2023-02-24T02:29:20.562Z,84.95
2023-02-24T02:30:20.533Z,84.95
2023-02-24T02:31:20.906Z,84.95
2023-02-24T02:32:20.688Z,85.06
2023-02-24T02:33:21.818Z,85.16
2023-02-24T02:34:20.468Z,85.06
2023-02-24T02:35:20.445Z,84.95
2023-02-24T02:36:20.416Z,85.06
2023-02-24T02:37:20.410Z,84.95
2023-02-24T02:38:20.437Z,85.26
2023-02-24T02:39:20.388Z,85.26
2023-02-24T02:40:20.371Z,85.26
2023-02-24T02:41:20.701Z,85.26
2023-02-24T02:42:20.367Z,85.16
2023-02-24T02:43:20.374Z,85.16
2023-02-24T02:44:20.335Z,84.95
2023-02-24T02:45:20.338Z,84.95
2023-02-24T02:46:20.293Z,84.85
2023-02-24T02:47:21.318Z,84.95
2023-02-24T02:48:20.334Z,85.06
2023-02-24T02:49:20.289Z,84.95
2023-02-24T02:50:20.603Z,84.95
2023-02-24T02:51:20.589Z,84.75
2023-02-24T02:52:20.246Z,84.64
2023-02-24T02:53:20.217Z,84.44
2023-02-24T02:54:20.229Z,84.13
2023-02-24T02:55:20.187Z,84.13
2023-02-24T02:56:20.476Z,84.03
2023-02-24T02:57:20.178Z,84.13
2023-02-24T02:58:20.153Z,83.62
2023-02-24T02:59:20.176Z,83.51
2023-02-24T03:00:20.123Z,83.41
2023-02-24T03:01:20.420Z,83.72
2023-02-24T03:02:20.114Z,83.83
2023-02-24T03:03:20.146Z,83.62
2023-02-24T03:04:20.136Z,83.31
2023-02-24T03:05:20.091Z,83.31
2023-02-24T03:06:20.067Z,83.20
2023-02-24T03:07:20.079Z,83.41
2023-02-24T03:08:20.042Z,83.72
2023-02-24T03:09:20.088Z,83.83
2023-02-24T03:10:20.047Z,83.83
2023-02-24T03:11:20.356Z,83.83
2023-02-24T03:12:19.978Z,83.83
2023-02-24T03:13:20.010Z,83.72
2023-02-24T03:14:20.030Z,83.62
2023-02-24T03:15:19.978Z,83.62
2023-02-24T03:16:19.961Z,83.62
2023-02-24T03:17:19.941Z,83.62
2023-02-24T03:18:20.196Z,83.72
2023-02-24T03:19:19.896Z,83.51
2023-02-24T03:20:19.970Z,83.41
2023-02-24T03:21:20.229Z,83.41
2023-02-24T03:22:19.867Z,83.20
2023-02-24T03:23:19.893Z,83.31
2023-02-24T03:24:19.844Z,83.51
2023-02-24T03:25:19.910Z,83.51
2023-02-24T03:26:19.863Z,83.72
2023-02-24T03:27:19.842Z,83.72
2023-02-24T03:28:19.812Z,83.62
2023-02-24T03:29:19.806Z,83.92
2023-02-24T03:30:19.779Z,84.03
2023-02-24T03:31:20.341Z,83.92
2023-02-24T03:32:19.920Z,83.83
2023-02-24T03:33:19.740Z,83.83
2023-02-24T03:34:19.742Z,83.83
2023-02-24T03:35:19.735Z,83.72
2023-02-24T03:36:19.714Z,83.83
2023-02-24T03:37:19.713Z,83.72
2023-02-24T03:38:19.774Z,83.83
2023-02-24T03:39:21.495Z,83.72
2023-02-24T03:40:19.667Z,83.72
2023-02-24T03:41:19.984Z,83.83
2023-02-24T03:42:22.707Z,83.51
2023-02-24T03:43:20.008Z,83.65
2023-02-24T03:44:19.628Z,83.65
2023-02-24T03:45:19.626Z,83.65
2023-02-24T03:46:19.667Z,83.65
2023-02-24T03:47:19.615Z,83.65
2023-02-24T03:48:19.594Z,83.76
2023-02-24T03:49:19.592Z,83.97
2023-02-24T03:50:22.605Z,84.17
2023-02-24T03:51:19.797Z,84.17
2023-02-24T03:52:19.564Z,84.17
2023-02-24T03:53:19.533Z,83.86
2023-02-24T03:54:19.562Z,83.76
2023-02-24T03:55:19.527Z,83.86
2023-02-24T03:56:19.539Z,83.76
2023-02-24T03:57:19.471Z,83.65
2023-02-24T03:58:19.459Z,83.97
2023-02-24T03:59:19.457Z,83.86
2023-02-24T04:00:19.669Z,83.65
2023-02-24T04:01:19.840Z,83.76
2023-02-24T04:02:19.462Z,83.65
2023-02-24T04:03:19.416Z,83.65
2023-02-24T04:04:19.481Z,83.55
2023-02-24T04:05:19.634Z,83.45
2023-02-24T04:06:19.483Z,83.45
2023-02-24T04:07:19.404Z,83.55
2023-02-24T04:08:19.646Z,83.76
2023-02-24T04:09:19.319Z,83.65
2023-02-24T04:10:20.368Z,83.65
2023-02-24T04:11:19.884Z,83.76
2023-02-24T04:12:19.380Z,84.07
2023-02-24T04:13:19.319Z,84.38
2023-02-24T04:14:19.286Z,84.21
2023-02-24T04:15:19.294Z,84.38
2023-02-24T04:16:19.255Z,84.58
2023-02-24T04:17:19.531Z,84.48
2023-02-24T04:18:19.254Z,84.48
2023-02-24T04:19:19.287Z,84.38
2023-02-24T04:20:19.206Z,84.21
2023-02-24T04:21:19.531Z,84.21
2023-02-24T04:22:19.171Z,84.11
2023-02-24T04:23:19.170Z,84.42
2023-02-24T04:24:19.193Z,84.72
2023-02-24T04:25:19.167Z,84.52
2023-02-24T04:26:19.142Z,84.42
2023-02-24T04:27:19.113Z,84.42
2023-02-24T04:28:19.120Z,84.21
2023-02-24T04:29:19.133Z,84.31
2023-02-24T04:30:19.128Z,84.31
2023-02-24T04:31:19.241Z,84.31
2023-02-24T04:32:19.203Z,84.42
2023-02-24T04:33:19.299Z,84.21
2023-02-24T04:34:19.058Z,84.21
2023-02-24T04:35:19.104Z,84.21
2023-02-24T04:36:19.038Z,84.11
2023-02-24T04:37:19.026Z,84.31
2023-02-24T04:38:18.983Z,84.42
2023-02-24T04:39:19.014Z,84.62
2023-02-24T04:40:19.476Z,84.72
2023-02-24T04:41:19.483Z,84.83
2023-02-24T04:42:18.936Z,85.03
2023-02-24T04:43:20.220Z,84.83
2023-02-24T04:44:18.920Z,85.03
2023-02-24T04:45:18.943Z,85.24
2023-02-24T04:46:19.032Z,85.24
2023-02-24T04:47:18.928Z,85.44
2023-02-24T04:48:18.914Z,85.34
2023-02-24T04:49:18.903Z,85.14
2023-02-24T04:50:18.851Z,85.03
2023-02-24T04:51:19.407Z,85.03
2023-02-24T04:52:18.891Z,85.14
2023-02-24T04:53:18.821Z,85.24
2023-02-24T04:54:18.819Z,85.44
2023-02-24T04:55:18.854Z,85.24
2023-02-24T04:56:18.792Z,85.38
2023-02-24T04:57:18.764Z,85.38
2023-02-24T04:58:18.780Z,85.59
2023-02-24T04:59:19.742Z,85.59
2023-02-24T05:00:19.815Z,85.59
2023-02-24T05:01:19.015Z,85.44
2023-02-24T05:02:20.173Z,85.75
2023-02-24T05:03:18.771Z,85.86
2023-02-24T05:04:19.245Z,85.65
2023-02-24T05:05:18.723Z,85.65
2023-02-24T05:06:18.781Z,85.55
2023-02-24T05:07:18.672Z,85.65
2023-02-24T05:08:18.686Z,85.55
2023-02-24T05:09:18.632Z,85.55
2023-02-24T05:10:18.663Z,85.69
2023-02-24T05:11:18.984Z,85.89
2023-02-24T05:12:18.636Z,86.21
2023-02-24T05:13:18.588Z,86.52
2023-02-24T05:14:18.597Z,86.61
2023-02-24T05:15:18.559Z,86.41
2023-02-24T05:16:18.631Z,86.31
2023-02-24T05:17:18.576Z,86.27
2023-02-24T05:18:18.587Z,86.00
2023-02-24T05:19:18.512Z,86.31
2023-02-24T05:20:18.574Z,86.31
2023-02-24T05:21:18.849Z,86.10
2023-02-24T05:22:18.525Z,86.16
2023-02-24T05:23:18.484Z,86.06
2023-02-24T05:24:18.468Z,86.06
2023-02-24T05:25:18.458Z,85.86
2023-02-24T05:26:18.495Z,85.75
2023-02-24T05:27:18.459Z,85.89
2023-02-24T05:28:18.423Z,86.10
2023-02-24T05:29:18.411Z,86.00
2023-02-24T05:30:18.401Z,86.10
2023-02-24T05:31:18.600Z,85.89
2023-02-24T05:32:18.492Z,86.00
2023-02-24T05:33:18.359Z,85.69
2023-02-24T05:34:18.389Z,85.69
2023-02-24T05:35:18.329Z,85.89
2023-02-24T05:36:18.376Z,86.00
2023-02-24T05:37:18.301Z,86.10
2023-02-24T05:38:18.284Z,86.31
2023-02-24T05:39:18.330Z,85.59
2023-02-24T05:40:18.275Z,84.45
2023-02-24T05:41:18.536Z,83.94
2023-02-24T05:42:19.742Z,83.98
2023-02-24T05:43:18.259Z,84.19
2023-02-24T05:44:18.493Z,84.08
2023-02-24T05:45:18.257Z,83.87
2023-02-24T05:46:18.253Z,83.98
2023-02-24T05:47:18.757Z,84.08
2023-02-24T05:48:18.183Z,83.77
2023-02-24T05:49:18.169Z,84.08
2023-02-24T05:50:18.176Z,84.29
2023-02-24T05:51:18.230Z,84.12
2023-02-24T05:52:18.184Z,84.74
2023-02-24T05:53:18.118Z,85.25
2023-02-24T05:54:18.090Z,85.36
2023-02-24T05:55:18.094Z,85.97
2023-02-24T05:56:18.107Z,86.29
2023-02-24T05:57:18.112Z,85.39
2023-02-24T05:58:18.069Z,85.19
2023-02-24T05:59:18.102Z,85.50
2023-02-24T06:00:18.025Z,85.19
2023-02-24T06:01:18.151Z,85.30
2023-02-24T06:02:18.084Z,85.44
2023-02-24T06:03:18.073Z,85.13
2023-02-24T06:04:17.996Z,85.75
2023-02-24T06:05:19.998Z,85.85
2023-02-24T06:06:17.997Z,85.85
2023-02-24T06:07:17.977Z,85.02
2023-02-24T06:08:17.950Z,85.64
2023-02-24T06:09:17.930Z,86.05
2023-02-24T06:10:17.928Z,86.47
2023-02-24T06:11:17.908Z,86.36
2023-02-24T06:12:17.917Z,85.85
2023-02-24T06:13:17.908Z,85.02
2023-02-24T06:14:19.727Z,85.02
2023-02-24T06:15:17.851Z,85.13
2023-02-24T06:16:17.892Z,84.92
2023-02-24T06:17:17.857Z,84.51
2023-02-24T06:18:17.880Z,84.51
2023-02-24T06:19:17.834Z,84.51
2023-02-24T06:20:17.823Z,84.51
2023-02-24T06:21:17.803Z,83.99
2023-02-24T06:22:17.780Z,83.27
2023-02-24T06:23:17.760Z,83.68
2023-02-24T06:24:18.060Z,83.68
2023-02-24T06:25:17.750Z,83.27
2023-02-24T06:26:18.012Z,83.17
2023-02-24T06:27:18.022Z,82.71
2023-02-24T06:28:17.732Z,82.71
2023-02-24T06:29:17.701Z,82.45
2023-02-24T06:30:17.708Z,82.34
2023-02-24T06:31:17.731Z,82.03
2023-02-24T06:32:17.828Z,82.55
2023-02-24T06:33:17.688Z,82.65
2023-02-24T06:34:17.652Z,82.24
2023-02-24T06:35:17.662Z,81.62
2023-02-24T06:36:17.699Z,81.51
2023-02-24T06:37:17.644Z,81.82
2023-02-24T06:38:17.628Z,82.45
2023-02-24T06:39:17.608Z,82.34
2023-02-24T06:40:17.594Z,82.96
2023-02-24T06:41:17.582Z,82.96
2023-02-24T06:42:17.591Z,82.75
2023-02-24T06:43:17.927Z,82.24
2023-02-24T06:44:17.792Z,82.24
2023-02-24T06:45:17.534Z,82.34
2023-02-24T06:46:17.629Z,82.61
2023-02-24T06:47:17.510Z,82.30
2023-02-24T06:48:17.484Z,81.99
2023-02-24T06:49:17.484Z,82.30
2023-02-24T06:50:17.616Z,82.51
2023-02-24T06:51:17.501Z,82.10
2023-02-24T06:52:17.455Z,81.37
2023-02-24T06:53:17.455Z,81.68
2023-02-24T06:54:17.504Z,81.58
2023-02-24T06:55:17.396Z,81.99
2023-02-24T06:56:17.634Z,81.89
2023-02-24T06:57:17.413Z,81.79
2023-02-24T06:58:17.362Z,81.58
2023-02-24T06:59:17.371Z,82.20
2023-02-24T07:00:17.364Z,82.30
2023-02-24T07:01:17.390Z,82.10
2023-02-24T07:02:17.334Z,82.06
2023-02-24T07:03:17.338Z,81.07
2023-02-24T07:04:17.488Z,81.27
2023-02-24T07:05:18.329Z,81.89
2023-02-24T07:06:18.309Z,81.75
2023-02-24T07:07:17.410Z,81.58
2023-02-24T07:08:17.248Z,81.37
2023-02-24T07:09:17.228Z,80.96
2023-02-24T07:10:17.229Z,81.37
2023-02-24T07:11:17.199Z,81.68
2023-02-24T07:12:17.197Z,81.54
2023-02-24T07:13:17.233Z,81.44
2023-02-24T07:14:17.195Z,81.54
2023-02-24T07:15:17.167Z,81.65
2023-02-24T07:16:17.197Z,81.44
2023-02-24T07:17:18.190Z,81.23
2023-02-24T07:18:17.881Z,81.03
2023-02-24T07:19:17.101Z,81.13
2023-02-24T07:20:17.868Z,80.65
2023-02-24T07:21:17.085Z,80.76
2023-02-24T07:22:17.108Z,80.65
2023-02-24T07:23:17.564Z,80.65
2023-02-24T07:24:17.109Z,80.90
2023-02-24T07:25:17.038Z,81.62
2023-02-24T07:26:17.154Z,82.24
2023-02-24T07:27:17.011Z,82.14
2023-02-24T07:28:17.002Z,81.72
2023-02-24T07:29:16.992Z,81.10
2023-02-24T07:30:16.996Z,80.48
2023-02-24T07:31:17.159Z,80.28
2023-02-24T07:32:17.044Z,80.18
2023-02-24T07:33:17.052Z,80.28
2023-02-24T07:34:16.950Z,79.97
2023-02-24T07:35:16.956Z,80.00
2023-02-24T07:36:17.160Z,80.21
2023-02-24T07:37:17.070Z,80.83
2023-02-24T07:38:16.880Z,81.14
2023-02-24T07:39:17.127Z,81.14
2023-02-24T07:40:17.087Z,81.49
2023-02-24T07:41:16.853Z,81.90
2023-02-24T07:42:16.918Z,81.80
2023-02-24T07:43:16.904Z,82.21
2023-02-24T07:44:16.790Z,82.21
2023-02-24T07:45:16.909Z,82.52
2023-02-24T07:46:19.898Z,82.10
2023-02-24T07:47:16.802Z,82.97
2023-02-24T07:48:17.032Z,83.18
2023-02-24T07:49:16.744Z,82.97
2023-02-24T07:50:16.829Z,83.39
2023-02-24T07:51:18.874Z,83.70
2023-02-24T07:52:16.810Z,83.28
2023-02-24T07:53:16.714Z,83.07
2023-02-24T07:54:16.681Z,82.66
2023-02-24T07:55:17.096Z,82.87
2023-02-24T07:56:16.684Z,83.39
2023-02-24T07:57:16.687Z,83.49
2023-02-24T07:58:16.638Z,83.28
2023-02-24T07:59:16.770Z,83.07
2023-02-24T08:00:17.131Z,82.76
2023-02-24T08:01:16.607Z,82.97
2023-02-24T08:02:16.767Z,82.56
2023-02-24T08:03:16.653Z,82.56
2023-02-24T08:04:16.562Z,82.66
2023-02-24T08:05:16.601Z,83.14
2023-02-24T08:06:16.557Z,82.93
2023-02-24T08:07:16.557Z,82.42
2023-02-24T08:08:16.525Z,82.42
2023-02-24T08:09:16.564Z,82.42
2023-02-24T08:10:16.529Z,82.52
2023-02-24T08:11:16.495Z,82.83
2023-02-24T08:12:16.501Z,82.59
2023-02-24T08:13:16.477Z,82.28
2023-02-24T08:14:16.532Z,81.56
2023-02-24T08:15:16.557Z,81.51
2023-02-24T08:16:16.534Z,81.10
2023-02-24T08:17:16.409Z,80.90
2023-02-24T08:18:16.479Z,80.79
2023-02-24T08:19:16.390Z,80.38
2023-02-24T08:20:16.413Z,80.04
2023-02-24T08:21:16.365Z,79.72
2023-02-24T08:22:16.353Z,79.62
2023-02-24T08:23:16.372Z,79.52
2023-02-24T08:24:16.553Z,79.00
2023-02-24T08:25:16.518Z,79.83
2023-02-24T08:26:16.369Z,79.52
2023-02-24T08:27:16.345Z,79.72
2023-02-24T08:28:16.614Z,79.79
2023-02-24T08:29:16.250Z,79.21
2023-02-24T08:30:17.295Z,78.59
2023-02-24T08:31:16.337Z,79.41
2023-02-24T08:32:17.958Z,79.58
2023-02-24T08:33:16.243Z,79.38
2023-02-24T08:34:16.229Z,78.34
2023-02-24T08:35:16.254Z,78.34
2023-02-24T08:36:16.196Z,78.45
2023-02-24T08:37:16.244Z,78.76
2023-02-24T08:38:16.193Z,78.97
2023-02-24T08:39:17.113Z,79.03
2023-02-24T08:40:16.370Z,78.52
2023-02-24T08:41:16.183Z,78.48
2023-02-24T08:42:16.198Z,78.79
2023-02-24T08:43:16.252Z,78.28
2023-02-24T08:44:16.203Z,78.79
2023-02-24T08:45:16.121Z,78.69
2023-02-24T08:46:16.148Z,78.28
2023-02-24T08:47:16.088Z,77.80
2023-02-24T08:48:16.078Z,78.00
2023-02-24T08:49:16.037Z,77.28
2023-02-24T08:50:17.341Z,78.31
2023-02-24T08:51:16.131Z,77.80
2023-02-24T08:52:16.028Z,77.48
2023-02-24T08:53:16.052Z,78.11
2023-02-24T08:54:16.067Z,78.62
2023-02-24T08:55:16.024Z,77.90
2023-02-24T08:56:16.226Z,78.21
2023-02-24T08:57:16.008Z,78.11
2023-02-24T08:58:18.979Z,77.80
2023-02-24T08:59:15.955Z,77.35
2023-02-24T09:00:16.012Z,76.83
2023-02-24T09:01:15.948Z,76.93
2023-02-24T09:02:15.928Z,77.35
2023-02-24T09:03:15.887Z,76.83
2023-02-24T09:04:15.932Z,76.32
2023-02-24T09:05:15.968Z,76.87
2023-02-24T09:06:15.835Z,77.45
2023-02-24T09:07:16.335Z,77.04
2023-02-24T09:08:15.942Z,76.93
2023-02-24T09:09:15.875Z,76.73
2023-02-24T09:10:15.835Z,76.21
2023-02-24T09:11:15.839Z,76.53
2023-02-24T09:12:15.882Z,76.32
2023-02-24T09:13:19.145Z,76.32
2023-02-24T09:14:26.096Z,76.32
2023-02-24T09:15:16.793Z,76.21
2023-02-24T09:16:15.790Z,76.01
2023-02-24T09:17:16.012Z,75.49
2023-02-24T09:18:15.691Z,76.18
2023-02-24T09:19:15.962Z,76.18
2023-02-24T09:20:15.753Z,75.67
2023-02-24T09:21:16.706Z,74.74
2023-02-24T09:22:21.367Z,75.25
2023-02-24T09:23:17.404Z,76.39
2023-02-24T09:24:16.930Z,76.90
2023-02-24T09:25:15.662Z,76.59
2023-02-24T09:26:15.640Z,75.97
2023-02-24T09:27:15.607Z,75.84
2023-02-24T09:28:15.729Z,75.63
2023-02-24T09:29:15.637Z,75.73
2023-02-24T09:30:15.557Z,75.90
2023-02-24T09:31:15.804Z,75.80
2023-02-24T09:32:16.748Z,75.35
2023-02-24T09:33:15.589Z,74.95
2023-02-24T09:34:15.562Z,73.98
2023-02-24T09:35:15.550Z,73.47
2023-02-24T09:36:15.562Z,73.27
2023-02-24T09:37:15.482Z,72.65
2023-02-24T09:38:15.524Z,73.36
2023-02-24T09:39:15.526Z,73.57
2023-02-24T09:40:15.523Z,73.54
2023-02-24T09:41:18.948Z,73.74
2023-02-24T09:42:15.416Z,72.92
2023-02-24T09:43:15.461Z,72.72
2023-02-24T09:44:18.756Z,72.44
2023-02-24T09:45:15.422Z,72.34
2023-02-24T09:46:15.507Z,73.16
2023-02-24T09:47:15.521Z,73.36
2023-02-24T09:48:16.812Z,73.64
2023-02-24T09:49:15.407Z,73.44
2023-02-24T09:50:16.235Z,73.13
2023-02-24T09:51:15.387Z,72.58
2023-02-24T09:52:15.621Z,72.17
2023-02-24T09:53:15.438Z,71.62
2023-02-24T09:54:15.413Z,71.21
2023-02-24T09:55:15.317Z,71.21
2023-02-24T09:56:15.364Z,69.88
2023-02-24T09:57:15.388Z,69.26
2023-02-24T09:58:15.300Z,69.43
2023-02-24T09:59:15.217Z,69.40
2023-02-24T10:00:15.283Z,68.68
2023-02-24T10:01:15.259Z,68.79
2023-02-24T10:02:15.309Z,68.48
2023-02-24T10:03:15.180Z,67.56
2023-02-24T10:04:21.173Z,67.46
2023-02-24T10:05:16.390Z,67.11
2023-02-24T10:06:15.185Z,65.55
2023-02-24T10:07:15.484Z,64.67
2023-02-24T10:08:15.130Z,63.21
2023-02-24T10:09:15.305Z,63.95
2023-02-24T10:10:15.099Z,65.01
2023-02-24T10:11:15.077Z,65.52
2023-02-24T10:12:15.131Z,65.11
2023-02-24T10:13:15.121Z,64.03
2023-02-24T10:14:17.270Z,63.31
2023-02-24T10:15:15.060Z,62.59
2023-02-24T10:16:15.142Z,62.80
2023-02-24T10:17:15.108Z,61.77
2023-02-24T10:18:15.031Z,60.19
2023-02-24T10:19:15.135Z,60.47
2023-02-24T10:20:15.016Z,62.32
2023-02-24T10:21:15.120Z,61.72
2023-02-24T10:22:16.080Z,59.92
2023-02-24T10:23:14.986Z,57.93
2023-02-24T10:24:14.969Z,54.92
2023-02-24T10:25:21.122Z,54.16
2023-02-24T10:26:15.942Z,53.67
2023-02-24T10:27:18.094Z,52.25
2023-02-24T10:28:14.942Z,54.00
2023-02-24T10:29:15.588Z,55.41
2023-02-24T10:30:15.908Z,53.02
2023-02-24T10:31:14.991Z,51.13
2023-02-24T10:32:15.009Z,53.06
2023-02-24T10:33:14.861Z,55.08
2023-02-24T10:34:15.256Z,55.82
2023-02-24T10:35:14.865Z,56.46
2023-02-24T10:36:14.809Z,55.82
2023-02-24T10:37:27.572Z,57.20
2023-02-24T10:38:15.837Z,55.87
2023-02-24T10:39:14.837Z,55.58
2023-02-24T10:40:15.037Z,56.33
2023-02-24T10:41:14.779Z,56.76
2023-02-24T10:42:14.842Z,56.15
2023-02-24T10:43:15.838Z,56.87
2023-02-24T10:44:14.737Z,57.20
2023-02-24T10:45:18.685Z,57.40
2023-02-24T10:46:14.740Z,57.58
2023-02-24T10:47:14.752Z,56.97
2023-02-24T10:48:15.591Z,57.38
2023-02-24T10:49:14.683Z,55.58
2023-02-24T10:50:14.670Z,55.36
2023-02-24T10:51:14.705Z,54.92
2023-02-24T10:52:14.639Z,54.69
2023-02-24T10:53:14.614Z,54.26
2023-02-24T10:54:14.614Z,53.31
2023-02-24T10:55:14.823Z,54.24
2023-02-24T10:56:14.962Z,53.27
2023-02-24T10:57:14.649Z,54.21
2023-02-24T10:58:14.765Z,55.66
2023-02-24T10:59:14.603Z,55.28
2023-02-24T11:00:14.578Z,55.69
2023-02-24T11:01:14.970Z,55.66
2023-02-24T11:02:14.503Z,55.05
2023-02-24T11:03:21.995Z,55.58
2023-02-24T11:04:15.532Z,56.10
2023-02-24T11:05:14.463Z,56.51
2023-02-24T11:06:14.609Z,56.40
2023-02-24T11:07:14.426Z,56.51
2023-02-24T11:08:14.689Z,56.30
2023-02-24T11:09:14.659Z,56.43
2023-02-24T11:10:15.018Z,57.71
2023-02-24T11:11:14.643Z,57.71
2023-02-24T11:12:14.513Z,58.02
2023-02-24T11:13:14.374Z,58.43
2023-02-24T11:14:14.786Z,59.04
2023-02-24T11:15:14.793Z,58.84
2023-02-24T11:16:15.190Z,58.81
2023-02-24T11:17:15.222Z,59.32
2023-02-24T11:18:14.999Z,58.81
2023-02-24T11:19:15.719Z,58.37
2023-02-24T11:20:14.730Z,58.17
2023-02-24T11:21:14.556Z,57.12
2023-02-24T11:22:14.545Z,56.61
2023-02-24T11:23:14.294Z,57.35
2023-02-24T11:24:15.261Z,57.15
2023-02-24T11:25:14.233Z,57.58
2023-02-24T11:26:14.568Z,58.27
2023-02-24T11:27:14.316Z,57.29
2023-02-24T11:28:14.840Z,57.40
2023-02-24T11:29:16.171Z,56.17
2023-02-24T11:30:14.359Z,56.61
2023-02-24T11:31:14.644Z,57.04
2023-02-24T11:32:15.466Z,57.28
2023-02-24T11:33:14.180Z,57.71
2023-02-24T11:34:16.070Z,58.02
2023-02-24T11:35:14.177Z,57.92
2023-02-24T11:36:14.699Z,57.28
2023-02-24T11:37:14.921Z,56.87
2023-02-24T11:38:14.187Z,56.87
2023-02-24T11:39:20.654Z,56.25
2023-02-24T11:40:15.324Z,56.99
2023-02-24T11:41:14.681Z,57.28
2023-02-24T11:42:14.781Z,56.69
2023-02-24T11:43:14.615Z,58.15
2023-02-24T11:44:15.778Z,57.53
2023-02-24T11:45:14.035Z,56.99
2023-02-24T11:46:14.714Z,57.23
2023-02-24T11:47:14.609Z,56.95
2023-02-24T11:48:15.224Z,57.79
2023-02-24T11:49:13.928Z,59.25
2023-02-24T11:50:14.328Z,58.74
2023-02-24T11:51:14.902Z,58.40
2023-02-24T11:52:17.038Z,58.20
2023-02-24T11:53:14.382Z,57.59
2023-02-24T11:54:14.075Z,57.07
2023-02-24T11:55:14.275Z,57.28
2023-02-24T11:56:14.292Z,56.56
2023-02-24T11:57:15.989Z,55.94
2023-02-24T11:58:13.893Z,55.98
2023-02-24T11:59:14.098Z,56.38
2023-02-24T12:00:13.935Z,56.90
2023-02-24T12:01:14.255Z,56.46
2023-02-24T12:02:13.847Z,56.46
2023-02-24T12:03:15.198Z,55.85
2023-02-24T12:04:13.778Z,56.56
2023-02-24T12:05:15.125Z,57.18
2023-02-24T12:06:13.858Z,56.87
2023-02-24T12:07:13.808Z,57.00
2023-02-24T12:08:14.674Z,56.59
2023-02-24T12:09:14.006Z,57.41
2023-02-24T12:10:16.961Z,57.20
2023-02-24T12:11:13.722Z,57.41
2023-02-24T12:12:14.305Z,56.62
2023-02-24T12:13:14.385Z,57.23
2023-02-24T12:14:13.648Z,57.75
2023-02-24T12:15:14.363Z,57.84
2023-02-24T12:16:15.429Z,58.15
2023-02-24T12:17:15.144Z,57.64
2023-02-24T12:18:13.937Z,57.64
2023-02-24T12:19:13.716Z,58.15
2023-02-24T12:20:14.927Z,58.15
2023-02-24T12:21:13.556Z,57.03
2023-02-24T12:22:14.577Z,57.33
2023-02-24T12:23:14.553Z,57.95
2023-02-24T12:24:13.601Z,58.12
2023-02-24T12:25:13.550Z,57.71
2023-02-24T12:26:13.860Z,57.61
2023-02-24T12:27:13.668Z,57.18
2023-02-24T12:28:13.630Z,56.87
2023-02-24T12:29:13.555Z,56.87
2023-02-24T12:30:14.750Z,57.18
2023-02-24T12:31:13.583Z,56.90
2023-02-24T12:32:13.729Z,57.20
2023-02-24T12:33:14.551Z,56.49
2023-02-24T12:34:14.780Z,57.03
2023-02-24T12:35:13.855Z,57.64
2023-02-24T12:36:13.731Z,58.03
2023-02-24T12:37:13.629Z,57.10
2023-02-24T12:38:13.422Z,56.69
2023-02-24T12:39:13.401Z,56.90
2023-02-24T12:40:13.532Z,56.79
2023-02-24T12:41:13.824Z,56.28
2023-02-24T12:42:13.788Z,56.41
2023-02-24T12:43:14.175Z,56.79
2023-02-24T12:44:13.655Z,56.20
2023-02-24T12:45:13.393Z,56.62
2023-02-24T12:46:13.336Z,57.23
2023-02-24T12:47:13.487Z,56.92
2023-02-24T12:48:13.338Z,56.92
2023-02-24T12:49:13.267Z,57.64
2023-02-24T12:50:13.283Z,57.43
2023-02-24T12:51:13.272Z,57.10
2023-02-24T12:52:13.304Z,57.51